Terminal Aerodrome Forecast
Issued by NWS Wilmington, OH

Home | Current Version | Previous Version | Text Only | Print | Product List | Glossary On
Versions: 1 2 3 4 5 6 7 8 9 10 11 12 13 14 15 16 17 18 19 20 21 22 23 24
490
FTUS41 KILN 162101 AAA
TAFCVG
TAF AMD
KCVG 162101Z 1621/1724 VRB04KT P6SM SCT040 SCT250
     FM170400 16003KT P6SM SCT100
      TEMPO 1709/1712 5SM BR
     FM171500 20012KT P6SM VCSH BKN050
     FM171900 21012KT P6SM -SHRA VCTS BKN040CB
     FM172300 25010KT P6SM VCSH BKN040=

USA.gov is the U.S. government's official web portal to all federal, state and local government web resources and services.